Pagrindinis puslapis
METAR-TAF:

METAR-TAF

Oro uostai :

Laknau, Indija

platuma: 26-45N, ilguma: 080-53E, Aukštis: 122 m

Dabartinis oras

Ataskaita buvo paskelbta 36 minutes, ne 02:00 UTC
Ramus vėjas
Temperatūra 15°C
Drėgmė 94%
Slėgis 1017 hPa
Matomumas: 0600 m
rūkas

METAR: VILK 220200Z 00000KT 0600 R27/0900 RMID/0900 R09/1000 FG NSC 15/14 Q1017 NOSIG

Laikas: 08:06 (02:36 UTC)

Prognozė

Ataskaita buvo paskelbta 6 valandos ir 36 minutes, ne 20:00 UTC
Prognozė galioja nuo 21 metu 21 UTC su 22 metu 06 UTC
Vėjas kt iš Šiaurės
Matomumas: 1200 m
Mažai debesys ne aukštis 10000 ft
Išsisklaidę debesys ne aukštis 20000 ft
rūkana, Sekli rūkas
Tapsmas
nuo 22 metu 00 UTC su 22 metu 02 UTC
Vėjas kt iš Šiaurės
rūkas
Tapsmas
nuo 22 metu 04 UTC su 22 metu 06 UTC
Vėjas 2 kt nuo kintamojo kryptimis
Matomumas: 1500 m
rūkana

TAF: VILK 212000Z 2121/2206 00000KT 1200 BR MIFG FEW100 SCT200 BECMG 2200/2202 00000KT 0800MIFG FG BECMG 2204/2206 VRB02KT 1500 BR

Orai ataskaitas ir orų prognozės (METAR, TAF).

turimą stotys yra geltonos ir raudonos taškus žemėlapyje.

Perkelti pele per norėdami pamatyti stoties vardą.

Tada spustelėkite, norėdami matyti oro stebėjimo ir prognozės.

Norėdami pakeisti žemėlapį: spustelėkite ant žalios mygtukų su juodo kryžiaus žemyn,; žalią mygtuką su brūkšneliu, jei norite nutolinti; arba žalių rodyklių gretimoms žemėlapius.


METAR-TAF: